Flight Track Log - Related Links

Times and Time Zones

All times are in EST time to prevent confusion due to time zone crossing. See the RPA3253 flight status page for this flight to view local times or setup timezone preferences in your user account.

Time Position Orientation Groundspeed Altitude Reporting Facility
EST Latitude Longitude Course Direction KTS MPH feet Rate Location/Type
Wed 08:08:09 PM 39.7000 -86.3000 218° Southwest 126 145 1,600  Level Indianapolis TRACON
Wed 08:08:45 PM 39.6833 -86.3167 218° Southwest 129 148 3,200 2,000 Climbing Indianapolis TRACON
Wed 08:09:39 PM 39.6667 -86.3500 237° Southwest 172 198 4,600 1,596 Climbing Indianapolis TRACON
Wed 08:10:19 PM 39.6356 -86.3789 216° Southwest 189 217 5,700 2,412 Climbing Indianapolis Center
Wed 08:11:21 PM 39.5528 -86.3767 179° South 249 287 8,700 2,448 Climbing Indianapolis Center
Wed 08:12:24 PM 39.4761 -86.3633 172° South 272 313 10,800 1,887 Climbing Indianapolis Center
Wed 08:13:25 PM 39.3892 -86.3508 174° South 303 349 12,600 2,049 Climbing Indianapolis Center
Wed 08:14:27 PM 39.2953 -86.3361 173° South 335 386 15,000 2,341 Climbing Indianapolis Center
Wed 08:15:28 PM 39.1969 -86.3219 174° South 354 407 17,400 2,195 Climbing Indianapolis Center
Wed 08:16:30 PM 39.0953 -86.3075 174° South 363 418 19,500 2,226 Climbing Indianapolis Center
Wed 08:17:32 PM 38.9683 -86.2886 173° South 380 437 22,000 2,032 Climbing Indianapolis Center
Wed 08:18:34 PM 38.8625 -86.2728 173° South 391 450 23,700 1,645 Climbing Indianapolis Center
Wed 08:19:36 PM 38.7492 -86.2550 173° South 404 465 25,400 1,403 Climbing Indianapolis Center
Wed 08:20:38 PM 38.6306 -86.2389 174° South 416 479 26,600 1,161 Climbing Indianapolis Center
Wed 08:21:40 PM 38.5122 -86.1781 158° South 463 533 27,800 1,210 Climbing Indianapolis Center
Wed 08:22:42 PM 38.4033 -86.0789 144° Southeast 473 544 29,100 1,161 Climbing Indianapolis Center
Wed 08:23:44 PM 38.2919 -85.9761 144° Southeast 486 559 30,200 919 Climbing Indianapolis Center
Wed 08:24:46 PM 38.1581 -85.8553 145° Southeast 488 562 31,000 387 Climbing Indianapolis Center
Wed 08:25:48 PM 38.0458 -85.7542 145° Southeast 489 563 31,000  Level Indianapolis Center
Wed 08:26:50 PM 37.9344 -85.6556 145° Southeast 486 559 31,000  Level Indianapolis Center
Wed 08:27:52 PM 37.8272 -85.5589 145° Southeast 473 544 31,000  Level Indianapolis Center
Wed 08:28:54 PM 37.7111 -85.4528 144° Southeast 468 539 31,000  Level Indianapolis Center
Wed 08:29:55 PM 37.6036 -85.3575 145° Southeast 473 544 31,000  Level Indianapolis Center
Wed 08:30:57 PM 37.4956 -85.2639 145° Southeast 471 542 31,000  Level Indianapolis Center
Wed 08:31:59 PM 37.3881 -85.1700 145° Southeast 470 541 31,000  Level Indianapolis Center
Wed 08:33:01 PM 37.2819 -85.0744 144° Southeast 468 539 31,000  Level Indianapolis Center
Wed 08:34:03 PM 37.1567 -84.9653 145° Southeast 469 540 31,000  Level Indianapolis Center
Wed 08:35:05 PM 37.0506 -84.8739 145° Southeast 465 535 31,000  Level Indianapolis Center
Wed 08:36:06 PM 36.9428 -84.7803 145° Southeast 467 537 31,000  Level Indianapolis Center
Wed 08:37:08 PM 36.8367 -84.6883 145° Southeast 464 534 31,000  Level Indianapolis Center
Wed 08:38:10 PM 36.7300 -84.5967 145° Southeast 465 535 31,000  Level Indianapolis Center
Wed 08:39:12 PM 36.6222 -84.5039 145° Southeast 467 537 31,000  Level Indianapolis Center
Wed 08:40:14 PM 36.5000 -84.3986 145° Southeast 465 535 31,000  Level Indianapolis Center
Wed 08:41:15 PM 36.4072 -84.3206 146° Southeast 468 539 31,000  Level Indianapolis Center
Wed 08:42:17 PM 36.2781 -84.2094 145° Southeast 468 539 31,000  Level Indianapolis Center
Wed 08:43:19 PM 36.1692 -84.1183 146° Southeast 468 539 31,000  Level Indianapolis Center
Wed 08:44:17 PM 36.0667 -84.0336 146° Southeast 465 535 31,000 -356 Level Atlanta Center
Wed 08:45:17 PM 35.9706 -83.9514 145° Southeast 465 535 30,300 -1,000 Descending Atlanta Center
Wed 08:46:17 PM 35.9017 -83.8106 121° Southeast 465 535 29,000 -650 Descending Atlanta Center
Wed 08:47:17 PM 35.8969 -83.6414 92° East 455 524 29,000  Level Atlanta Center
Wed 08:48:17 PM 35.8942 -83.4722 91° East 471 542 29,000  Level Atlanta Center
Wed 08:49:17 PM 35.8914 -83.3031 91° East 482 555 29,000  Level Atlanta Center
Wed 08:50:17 PM 35.8983 -83.1211 87° East 483 556 29,000 -500 Level Atlanta Center
Wed 08:51:17 PM 35.9347 -82.9667 74° East 470 541 28,000 -1,750 Descending Atlanta Center
Wed 08:52:17 PM 35.9689 -82.8175 74° East 453 521 25,500 -1,900 Descending Atlanta Center
Wed 08:53:17 PM 36.0028 -82.6783 73° East 430 495 24,200 -750 Descending Atlanta Center
Wed 08:54:17 PM 36.0325 -82.5392 75° East 416 479 24,000 -700 Descending Atlanta Center
Wed 08:55:17 PM 35.9953 -82.4014 108° East 406 467 22,800 -1,150 Descending Atlanta Center
Wed 08:56:17 PM 35.9392 -82.2767 119° Southeast 407 468 21,700 -1,100 Descending Atlanta Center
Wed 08:57:17 PM 35.9100 -82.1414 105° East 407 468 20,600 -1,100 Descending Atlanta Center
Wed 08:58:17 PM 35.8767 -82.0092 107° East 407 468 19,500 -1,100 Descending Atlanta Center
Wed 08:59:17 PM 35.8186 -81.9031 124° Southeast 372 428 18,400 -1,400 Descending Atlanta Center
Wed 09:00:17 PM 35.7564 -81.8072 129° Southeast 372 428 16,700 -1,750 Descending Atlanta Center
Wed 09:01:17 PM 35.6919 -81.7144 131° Southeast 367 422 14,900 -1,250 Descending Atlanta Center
Wed 09:02:17 PM 35.6342 -81.6267 129° Southeast 351 404 14,200 -772 Descending Atlanta Center
Wed 09:02:58 PM 35.5933 -81.5717 132° Southeast 293 337 13,600 -1,017 Descending Atlanta Center
Wed 09:03:16 PM 35.5783 -81.5467 126° Southeast 290 334 13,200 -1,263 Descending Atlanta Center
Wed 09:03:17 PM 35.5803 -81.5467 360° North 328 377 13,200 -197 Level Atlanta Center
Wed 09:04:17 PM 35.5264 -81.4667 130° Southeast 292 336 13,000 -100 Descending Atlanta Center
Wed 09:05:17 PM 35.4769 -81.3917 129° Southeast 299 344 13,000  Level Atlanta Center
Wed 09:05:18 PM 35.4769 -81.3892 90° East 293 337 13,000  Level Atlanta Center
Wed 09:06:17 PM 35.4253 -81.3142 130° Southeast 299 344 13,000  Level Atlanta Center
Wed 09:06:19 PM 35.4253 -81.3142 130° Southeast 291 335 13,000  Level Atlanta Center
Wed 09:07:17 PM 35.3733 -81.2369 130° Southeast 294 338 13,000  Level Atlanta Center
Wed 09:07:20 PM 35.3733 -81.2369 130° Southeast 292 336 13,000 -500 Level Atlanta Center
Wed 09:08:17 PM 35.3236 -81.1622 129° Southeast 294 338 12,500 -492 Descending Atlanta Center
Wed 09:08:21 PM 35.3172 -81.1550 137° Southeast 289 333 12,500 -1,200 Level Atlanta Center
Wed 09:09:17 PM 35.2761 -81.0953 130° Southeast 282 325 11,300 -1,377 Descending Atlanta Center
Wed 09:09:22 PM 35.2717 -81.0878 126° Southeast 260 299 11,100 -1,900 Descending Atlanta Center
Wed 09:10:17 PM 35.2128 -81.0697 166° South 245 282 9,400 -1,869 Descending Atlanta Center
Wed 09:10:23 PM 35.2067 -81.0697 180° South 236 272 9,200 -1,400 Descending Atlanta Center
Wed 09:11:17 PM 35.1481 -81.0617 174° South 237 273 8,000 -1,400 Descending Atlanta Center
Wed 09:11:23 PM 35.1439 -81.0644 209° Southwest 236 272 7,800 -1,433 Descending Atlanta Center
Wed 09:12:24 PM 35.0728 -81.0594 177° South 236 272 6,400 -1,230 Descending Atlanta Center
Wed 09:13:25 PM 35.0103 -81.0567 178° South 226 260 5,300 -689 Descending Atlanta Center
Wed 09:14:26 PM 34.9575 -81.0331 160° South 205 236 5,000 -148 Descending Atlanta Center
Wed 09:15:27 PM 34.9750 -80.9792 68° East 183 211 5,000 -98 Level Atlanta Center
Wed 09:16:28 PM 35.0222 -80.9547 23° Northeast 172 198 4,800 -843 Descending Atlanta Center
Wed 09:17:28 PM 35.0725 -80.9553 359° North 179 206 3,300 -1,240 Descending Atlanta Center
Wed 09:18:29 PM 35.1225 -80.9611 355° North 179 206 2,300 -885 Descending Atlanta Center
Wed 09:19:30 PM 35.1622 -80.9647 356° North 143 165 1,500 -787 Descending Atlanta Center

Login

Don't have an account? Register now (free) for customized features, flight alerts, and more!